Time;durP1;ratioP1;P1;durP2;ratioP2;P2;SDS_P1;SDS_P2;PMS_P1;PMS_P2;Temp;Humidity;BMP_temperature;BMP_pressure;BME280_temperature;BME280_humidity;BME280_pressure;Samples;Min_cycle;Max_cycle;Signal;HPM_P1;HPM_P2
2024/01/10 00:02:18;;;;;;;;;;;;;;;-0.07;90.12;98270.34;5072289;28;20070;-53
2024/01/10 00:04:44;;;;;;;0.35;0.35;;;;;;;-0.06;89.95;98268.66;5083874;28;19922;-53
2024/01/10 00:07:11;;;;;;;1.52;0.38;;;;;;;-0.05;89.60;98273.72;5064956;28;20857;-55
2024/01/10 00:09:37;;;;;;;0.90;0.60;;;;;;;0.00;89.97;98248.13;5073096;28;20423;-56
2024/01/10 00:12:04;;;;;;;0.70;0.45;;;;;;;0.06;89.91;98259.94;5082706;28;20516;-55
2024/01/10 00:14:30;;;;;;;1.02;0.60;;;;;;;0.10;89.32;98259.03;5070074;28;20473;-51
2024/01/10 00:16:56;;;;;;;0.50;0.40;;;;;;;0.14;89.80;98256.41;5078785;28;20131;-54
2024/01/10 00:19:23;;;;;;;0.73;0.47;;;;;;;0.22;89.64;98259.69;5082079;28;20040;-55
2024/01/10 00:21:49;;;;;;;1.02;0.60;;;;;;;0.24;89.58;98249.44;5080324;28;20131;-52
2024/01/10 00:24:15;;;;;;;0.77;0.52;;;;;;;0.22;89.61;98259.69;5080828;28;20036;-52
2024/01/10 00:26:42;;;;;;;0.65;0.47;;;;;;;0.35;89.51;98250.97;5081952;28;20044;-57
2024/01/10 00:29:08;;;;;;;0.50;0.40;;;;;;;0.14;89.08;98219.78;5066003;28;20134;-56
2024/01/10 00:31:34;;;;;;;0.30;0.22;;;;;;;0.33;89.85;98260.34;5084922;28;20040;-55
2024/01/10 00:34:04;;;;;;;0.90;0.50;;;;;;;0.34;89.78;98258.63;5071449;28;20512;-52
2024/01/10 00:36:30;;;;;;;0.55;0.47;;;;;;;0.38;90.12;98266.22;5068216;28;20051;-55
2024/01/10 00:38:57;;;;;;;0.70;0.47;;;;;;;0.26;89.72;98232.38;5055969;28;20114;-50
2024/01/10 00:41:23;;;;;;;0.93;0.60;;;;;;;0.41;89.65;98253.41;5081356;28;20043;-56
2024/01/10 00:43:50;;;;;;;1.15;0.60;;;;;;;0.57;89.46;98266.78;5072918;28;20044;-55
2024/01/10 00:46:19;;;;;;;0.98;0.50;;;;;;;0.65;89.44;98261.50;5051708;28;20089;-56
2024/01/10 00:48:46;;;;;;;0.52;0.40;;;;;;;0.70;89.15;98264.84;5072336;28;20043;-54
2024/01/10 00:51:12;;;;;;;0.60;0.30;;;;;;;0.65;88.95;98247.03;5067934;28;20097;-55
2024/01/10 00:53:38;;;;;;;0.40;0.40;;;;;;;0.53;88.53;98234.44;5081776;28;20036;-55
2024/01/10 00:56:06;;;;;;;1.75;0.40;;;;;;;0.66;88.39;98253.81;5084756;28;20051;-54
2024/01/10 00:58:32;;;;;;;1.58;0.52;;;;;;;0.81;88.66;98276.56;5070902;28;20033;-52
2024/01/10 01:00:58;;;;;;;0.50;0.32;;;;;;;0.88;88.47;98284.97;5067776;28;20068;-55
2024/01/10 01:03:24;;;;;;;0.57;0.40;;;;;;;0.93;88.21;98295.13;5064854;28;20043;-52
2024/01/10 01:05:51;;;;;;;1.00;0.50;;;;;;;0.96;88.44;98287.38;5074532;28;20048;-54
2024/01/10 01:08:17;;;;;;;0.65;0.30;;;;;;;0.99;88.24;98295.88;5086115;28;20028;-51
2024/01/10 01:10:43;;;;;;;0.85;0.55;;;;;;;1.05;87.97;98293.16;5071719;28;20047;-51
2024/01/10 01:13:09;;;;;;;1.10;0.77;;;;;;;1.06;88.19;98292.31;5071946;28;20069;-54
2024/01/10 01:15:36;;;;;;;0.70;0.55;;;;;;;1.10;88.07;98304.16;5052788;28;20039;-55
2024/01/10 01:18:02;;;;;;;0.80;0.70;;;;;;;1.10;87.54;98298.22;5068219;28;20131;-53
2024/01/10 01:20:28;;;;;;;1.25;0.68;;;;;;;1.14;87.96;98297.28;5049334;28;20097;-54
2024/01/10 01:22:55;;;;;;;0.95;0.60;;;;;;;0.75;87.82;98228.06;5069614;28;20060;-55
2024/01/10 01:25:21;;;;;;;0.90;0.70;;;;;;;1.21;87.98;98319.31;5078450;28;20044;-53
2024/01/10 01:27:48;;;;;;;1.00;0.68;;;;;;;1.05;88.17;98275.25;5071301;28;20032;-54
2024/01/10 01:30:14;;;;;;;2.13;0.68;;;;;;;1.04;88.82;98282.97;5070339;28;20165;-53
2024/01/10 01:32:41;;;;;;;1.30;0.70;;;;;;;1.22;90.14;98326.97;5051847;28;20032;-53
2024/01/10 01:35:08;;;;;;;1.40;0.63;;;;;;;1.18;91.52;98335.59;5069024;28;20044;-54
2024/01/10 01:37:34;;;;;;;0.45;0.30;;;;;;;1.00;93.18;98300.09;5070510;28;20048;-52
2024/01/10 01:40:01;;;;;;;2.33;0.70;;;;;;;1.15;94.72;98334.81;5068696;28;20046;-51
2024/01/10 01:42:28;;;;;;;1.02;0.40;;;;;;;1.11;96.94;98340.84;5079174;28;20061;-53
2024/01/10 01:44:55;;;;;;;0.52;0.30;;;;;;;1.10;98.31;98339.97;5074152;28;20427;-56
2024/01/10 01:47:21;;;;;;;0.85;0.40;;;;;;;1.11;100.00;98364.72;5074483;28;20523;-51
2024/01/10 01:49:48;;;;;;;0.25;0.15;;;;;;;1.11;100.00;98359.59;5074900;28;20036;-55
2024/01/10 01:52:14;;;;;;;0.30;0.30;;;;;;;1.09;100.00;98366.47;5089807;28;20183;-55
2024/01/10 01:54:41;;;;;;;2.00;0.35;;;;;;;0.87;100.00;98343.84;5066484;28;20043;-56
2024/01/10 01:57:07;;;;;;;1.58;0.50;;;;;;;1.05;100.00;98387.00;5060662;28;20044;-53
2024/01/10 01:59:34;;;;;;;0.75;0.22;;;;;;;1.10;100.00;98414.19;5062038;28;20045;-55
2024/01/10 02:02:03;;;;;;;2.67;0.40;;;;;;;1.08;100.00;98413.41;5080733;28;20155;-53
2024/01/10 02:04:30;;;;;;;1.98;0.30;;;;;;;0.99;100.00;98423.78;5081553;28;20104;-52
2024/01/10 02:06:57;;;;;;;1.80;0.77;;;;;;;0.65;100.00;98399.59;5072826;28;20139;-54
2024/01/10 02:09:23;;;;;;;0.38;0.28;;;;;;;0.73;100.00;98442.09;5083816;28;20036;-52
2024/01/10 02:11:50;;;;;;;0.65;0.20;;;;;;;0.69;100.00;98457.50;5073608;28;20044;-54
2024/01/10 02:14:17;;;;;;;0.75;0.40;;;;;;;0.41;100.00;98426.41;5074794;28;20051;-52
2024/01/10 02:16:43;;;;;;;3.95;0.50;;;;;;;0.39;100.00;98426.41;5071719;28;20040;-53
2024/01/10 02:19:23;;;;;;;1.00;0.28;;;;;;;0.52;100.00;98469.69;5077494;28;20722;-54
2024/01/10 02:21:49;;;;;;;0.20;0.20;;;;;;;0.43;100.00;98486.84;5074546;28;20051;-52
2024/01/10 02:24:16;;;;;;;1.75;0.80;;;;;;;0.43;100.00;98491.94;5068311;28;20056;-56
2024/01/10 02:26:42;;;;;;;0.57;0.30;;;;;;;0.24;100.00;98462.41;5081409;28;20586;-54
2024/01/10 02:29:09;;;;;;;1.80;0.40;;;;;;;0.34;100.00;98507.41;5069281;28;20132;-53
2024/01/10 02:31:35;;;;;;;0.50;0.30;;;;;;;0.20;100.00;98505.91;5073370;28;20040;-55
2024/01/10 02:34:01;;;;;;;1.40;0.70;;;;;;;0.18;100.00;98521.25;5060208;28;20040;-56
2024/01/10 02:36:27;;;;;;;0.75;0.47;;;;;;;0.13;100.00;98537.47;5050806;28;20044;-51
2024/01/10 02:38:53;;;;;;;3.60;0.75;;;;;;;0.05;100.00;98546.97;5076946;28;20070;-56
2024/01/10 02:41:20;;;;;;;0.85;0.50;;;;;;;-0.05;100.00;98551.28;5036180;28;20132;-57
2024/01/10 02:43:46;;;;;;;0.80;0.30;;;;;;;-0.17;100.00;98564.19;5069601;28;20566;-52
2024/01/10 02:46:13;;;;;;;1.60;0.68;;;;;;;-0.30;100.00;98581.34;5079072;28;20044;-53
2024/01/10 02:48:42;;;;;;;1.00;0.60;;;;;;;-0.37;100.00;98587.38;5065043;28;20040;-55
2024/01/10 02:51:08;;;;;;;1.83;0.60;;;;;;;-0.48;100.00;98591.72;5081953;28;20070;-54
2024/01/10 02:53:34;;;;;;;0.70;0.30;;;;;;;-0.80;100.00;98560.47;5085987;28;20885;-56
2024/01/10 02:56:01;;;;;;;1.17;0.65;;;;;;;-0.68;100.00;98604.59;5054176;28;20083;-55
2024/01/10 02:58:28;;;;;;;1.40;0.80;;;;;;;-0.71;100.00;98608.88;5079950;28;20045;-55
2024/01/10 03:00:54;;;;;;;1.98;0.70;;;;;;;-0.71;100.00;98621.66;5076205;28;20157;-55
2024/01/10 03:03:24;;;;;;;3.13;1.27;;;;;;;-0.92;100.00;98602.22;5066461;28;20638;-53
2024/01/10 03:05:50;;;;;;;;;;;;;;;-0.77;100.00;98644.63;5087471;28;20044;-53
2024/01/10 03:08:16;;;;;;;1.48;0.90;;;;;;;-0.86;100.00;98645.56;5056014;28;20301;-56
2024/01/10 03:10:43;;;;;;;1.55;0.88;;;;;;;-0.93;100.00;98652.38;5082749;28;20131;-56
2024/01/10 03:13:09;;;;;;;2.65;1.02;;;;;;;-0.99;100.00;98666.84;5077334;28;20122;-55
2024/01/10 03:15:36;;;;;;;2.53;1.08;;;;;;;-1.09;100.00;98671.16;5069841;28;20040;-53
2024/01/10 03:18:02;;;;;;;1.92;0.93;;;;;;;-1.14;100.00;98683.09;5070257;28;20139;-54
2024/01/10 03:20:29;;;;;;;3.47;1.17;;;;;;;-1.20;100.00;98695.84;5072748;28;20054;-56
2024/01/10 03:22:57;;;;;;;1.73;1.05;;;;;;;-1.25;100.00;98699.25;5079086;28;20367;-58
2024/01/10 03:25:23;;;;;;;2.90;1.20;;;;;;;-1.29;100.00;98712.03;5072527;28;20040;-57
2024/01/10 03:27:50;;;;;;;1.85;1.05;;;;;;;-1.31;100.00;98731.56;5073988;28;20046;-54
2024/01/10 03:30:18;;;;;;;2.00;0.80;;;;;;;-1.55;100.00;98695.09;5072342;28;20123;-53
2024/01/10 03:32:44;;;;;;;2.00;1.20;;;;;;;-1.37;100.00;98753.69;5070747;28;20040;-56
2024/01/10 03:35:13;;;;;;;2.60;1.40;;;;;;;-1.63;100.00;98720.63;5074357;28;20751;-54
2024/01/10 03:37:40;;;;;;;2.38;1.20;;;;;;;-1.43;100.00;98780.06;5071400;28;20424;-55
2024/01/10 03:40:07;;;;;;;3.63;1.70;;;;;;;-1.85;100.00;98708.75;5066934;28;20033;-56
2024/01/10 03:42:34;;;;;;;3.00;1.15;;;;;;;-1.85;100.00;98722.34;5079606;28;20176;-54
2024/01/10 03:45:00;;;;;;;2.20;1.10;;;;;;;-1.78;100.00;98754.56;5066408;28;20776;-55
2024/01/10 03:47:26;;;;;;;6.57;1.80;;;;;;;-1.63;100.00;98814.03;5056550;28;20040;-53
2024/01/10 03:49:53;;;;;;;3.13;1.60;;;;;;;-2.15;100.00;98733.34;5074512;28;20100;-53
2024/01/10 03:52:19;;;;;;;3.40;1.60;;;;;;;-1.72;100.00;98822.50;5072662;28;20044;-54
2024/01/10 03:54:46;;;;;;;3.58;1.95;;;;;;;-1.78;100.00;98831.00;5074231;28;20078;-55
2024/01/10 03:57:12;;;;;;;4.70;2.60;;;;;;;-2.00;100.00;98806.38;5071818;28;20072;-53
2024/01/10 03:59:38;;;;;;;4.05;2.03;;;;;;;-1.87;100.00;98845.41;5070404;28;20075;-54
2024/01/10 04:02:05;;;;;;;4.32;1.95;;;;;;;-1.91;100.00;98864.09;5069525;28;20098;-54
2024/01/10 04:04:31;;;;;;;4.35;1.95;;;;;;;-2.00;100.00;98876.81;5078536;28;20547;-55
2024/01/10 04:06:58;;;;;;;4.38;2.17;;;;;;;-2.09;100.00;98881.91;5052609;28;20082;-54
2024/01/10 04:09:24;;;;;;;6.57;2.65;;;;;;;-2.12;100.00;98900.53;5066790;28;20044;-57
2024/01/10 04:11:50;;;;;;;4.90;2.55;;;;;;;-2.40;100.00;98874.13;5072486;28;20193;-57
2024/01/10 04:14:16;;;;;;;4.25;2.33;;;;;;;-2.26;100.00;98925.09;5065551;28;20047;-55
2024/01/10 04:16:43;;;;;;;7.72;3.47;;;;;;;-2.39;100.00;98938.59;5060547;28;20040;-55
2024/01/10 04:19:09;;;;;;;6.05;2.90;;;;;;;-2.89;100.00;98873.03;5075577;28;20067;-55
2024/01/10 04:21:36;;;;;;;6.43;2.75;;;;;;;-2.50;100.00;98955.50;5069071;28;20508;-54
2024/01/10 04:24:02;;;;;;;9.40;3.58;;;;;;;-2.62;100.00;98957.13;5070043;28;20066;-55
2024/01/10 04:26:28;;;;;;;6.13;3.47;;;;;;;-2.75;100.00;98968.06;5078990;28;20044;-55
2024/01/10 04:28:55;;;;;;;8.20;3.13;;;;;;;-2.79;100.00;98983.31;5068646;28;20075;-56
2024/01/10 04:31:22;;;;;;;6.35;3.08;;;;;;;-3.08;100.00;98965.25;5078004;28;20043;-57
2024/01/10 04:33:49;;;;;;;6.63;3.63;;;;;;;-2.95;100.00;99009.44;5069328;28;20143;-56
2024/01/10 04:36:15;;;;;;;6.93;2.90;;;;;;;-3.49;100.00;98952.19;5069140;28;20044;-57
2024/01/10 04:38:41;;;;;;;6.78;3.33;;;;;;;-3.17;100.00;99024.50;5068447;28;20048;-58
2024/01/10 04:41:08;;;;;;;8.10;4.00;;;;;;;-3.24;100.00;99024.41;5071950;28;20048;-56
2024/01/10 04:43:34;;;;;;;6.82;3.13;;;;;;;-3.59;100.00;98989.34;5037383;28;20059;-57
2024/01/10 04:46:00;;;;;;;8.13;3.65;;;;;;;-3.46;100.00;99048.78;5083598;28;20051;-57
2024/01/10 04:48:26;;;;;;;7.25;3.40;;;;;;;-3.57;100.00;99055.44;5057992;28;20056;-53
2024/01/10 04:50:52;;;;;;;11.88;3.95;;;;;;;-3.64;100.00;99056.19;5068430;28;20044;-55
2024/01/10 04:53:19;;;;;;;12.38;3.90;;;;;;;-3.75;100.00;99071.28;5051852;28;20147;-59
2024/01/10 04:55:45;;;;;;;11.32;4.15;;;;;;;-3.79;100.00;99076.31;5071111;28;20401;-57
2024/01/10 04:58:12;;;;;;;9.88;4.15;;;;;;;-3.88;100.00;99077.91;5069978;28;20041;-56
2024/01/10 05:00:38;;;;;;;10.88;3.47;;;;;;;-3.89;100.00;99085.50;5071222;28;20058;-54
2024/01/10 05:03:04;;;;;;;6.78;3.00;;;;;;;-3.95;100.00;99103.19;5070588;28;20155;-53
2024/01/10 05:05:31;;;;;;;4.38;2.55;;;;;;;-4.28;100.00;99062.94;5039639;28;20041;-54
2024/01/10 05:07:57;;;;;;;9.43;3.30;;;;;;;-4.16;100.00;99115.56;5068707;28;20042;-56
2024/01/10 05:10:23;;;;;;;7.07;2.88;;;;;;;-4.25;100.00;99121.34;5070608;28;20131;-51
2024/01/10 05:12:52;;;;;;;9.43;3.63;;;;;;;-4.55;100.00;99082.84;5068479;28;20032;-52
2024/01/10 05:15:19;;;;;;;9.30;3.20;;;;;;;-4.93;100.00;99055.16;5083576;28;20059;-53
2024/01/10 05:17:45;;;;;;;7.57;3.05;;;;;;;-4.52;100.00;99144.59;5076976;28;20056;-54
2024/01/10 05:20:11;;;;;;;5.85;2.88;;;;;;;-4.91;100.00;99108.41;5068783;28;20051;-54
2024/01/10 05:22:40;;;;;;;9.13;3.25;;;;;;;-4.81;100.00;99156.75;5066407;28;20040;-53
2024/01/10 05:25:06;;;;;;;7.40;3.53;;;;;;;-4.92;100.00;99155.69;5073261;28;20044;-52
2024/01/10 05:27:33;;;;;;;6.03;3.22;;;;;;;-5.06;100.00;99166.41;5075457;28;20524;-50
2024/01/10 05:29:59;;;;;;;8.68;2.92;;;;;;;-5.44;100.00;99148.78;5079924;28;20075;-52
2024/01/10 05:32:28;;;;;;;10.27;3.45;;;;;;;-5.64;100.00;99144.97;5070624;28;20611;-56
2024/01/10 05:34:55;;;;;;;6.43;2.92;;;;;;;-5.53;100.00;99185.72;5077402;28;20101;-55
2024/01/10 05:37:22;;;;;;;10.48;3.28;;;;;;;-5.65;100.00;99202.34;5080662;28;20537;-57
2024/01/10 05:39:49;;;;;;;6.00;3.15;;;;;;;-5.92;100.00;99178.16;5082965;28;20051;-57
2024/01/10 05:42:15;;;;;;;6.57;2.70;;;;;;;-5.78;100.00;99215.56;5082395;28;20044;-56
2024/01/10 05:44:41;;;;;;;6.90;3.20;;;;;;;-5.82;100.00;99220.53;5065029;28;20105;-57
2024/01/10 05:47:08;;;;;;;7.07;3.05;;;;;;;-5.82;100.00;99231.50;5083545;28;20495;-52
2024/01/10 05:49:34;;;;;;;5.68;2.60;;;;;;;-6.01;100.00;99217.59;5080329;28;20040;-52
2024/01/10 05:52:01;;;;;;;6.78;2.97;;;;;;;-6.30;100.00;99165.47;5063078;28;20048;-53
2024/01/10 05:54:27;;;;;;;6.18;2.38;;;;;;;-6.09;100.00;99213.19;5074190;28;20048;-54
2024/01/10 05:56:53;;;;;;;6.57;3.30;;;;;;;-6.14;100.00;99212.22;5069859;28;20089;-54
2024/01/10 05:59:20;;;;;;;6.97;2.90;;;;;;;-5.88;100.00;99273.56;5083392;28;20035;-54
2024/01/10 06:01:46;;;;;;;5.13;2.60;;;;;;;-5.92;100.00;99276.84;5077680;28;20040;-54
2024/01/10 06:04:12;;;;;;;6.15;2.78;;;;;;;-5.92;100.00;99290.34;5070849;28;20520;-57
2024/01/10 06:06:38;;;;;;;6.38;2.40;;;;;;;-6.31;100.00;99236.22;5070534;28;20040;-54
2024/01/10 06:09:05;;;;;;;4.80;2.72;;;;;;;-5.94;100.00;99312.22;5052151;28;20037;-56
2024/01/10 06:11:31;;;;;;;5.75;2.28;;;;;;;-6.17;100.00;99281.28;5073205;28;20068;-55
2024/01/10 06:13:58;;;;;;;5.35;2.50;;;;;;;-5.94;100.00;99324.88;5052755;28;20036;-55
2024/01/10 06:16:24;;;;;;;3.90;1.98;;;;;;;-5.98;100.00;99335.75;5055188;28;20074;-53
2024/01/10 06:18:50;;;;;;;5.95;2.63;;;;;;;-6.04;100.00;99328.84;5064936;28;20051;-54
2024/01/10 06:21:16;;;;;;;5.35;2.80;;;;;;;-6.08;100.00;99338.88;5059550;28;20074;-56
2024/01/10 06:23:42;;;;;;;5.53;3.03;;;;;;;-6.15;100.00;99344.56;5032286;28;20071;-52
2024/01/10 06:26:09;;;;;;;5.03;2.50;;;;;;;-6.21;100.00;99347.78;5037695;28;20048;-52
2024/01/10 06:28:35;;;;;;;7.43;3.08;;;;;;;-6.23;100.00;99351.97;5069930;28;20036;-54
2024/01/10 06:31:02;;;;;;;6.35;2.90;;;;;;;-6.20;100.00;99367.22;5077292;28;20063;-56
2024/01/10 06:33:28;;;;;;;6.05;3.05;;;;;;;-6.19;100.00;99376.53;5049638;28;20071;-52
2024/01/10 06:35:54;;;;;;;8.13;3.15;;;;;;;-6.43;100.00;99337.91;5079488;28;20067;-54
2024/01/10 06:38:22;;;;;;;4.65;2.70;;;;;;;-6.16;100.00;99391.78;5063099;28;20066;-54
2024/01/10 06:40:49;;;;;;;5.07;2.50;;;;;;;-6.11;100.00;99394.41;5065205;28;20036;-56
2024/01/10 06:43:15;;;;;;;5.55;2.17;;;;;;;-6.36;100.00;99354.97;5074651;28;20131;-52
2024/01/10 06:45:42;;;;;;;6.03;2.60;;;;;;;-6.15;100.00;99397.69;5062784;28;20040;-54
2024/01/10 06:48:08;;;;;;;4.80;2.45;;;;;;;-6.08;100.00;99410.56;5074233;28;20032;-55
2024/01/10 06:50:34;;;;;;;6.65;2.53;;;;;;;-6.19;100.00;99378.19;5080967;28;20036;-55
2024/01/10 06:53:00;;;;;;;7.20;2.53;;;;;;;-6.09;100.00;99373.41;5073878;28;20044;-54
2024/01/10 06:55:28;;;;;;;5.18;2.40;;;;;;;-5.78;100.00;99417.22;5060752;28;20051;-53
2024/01/10 06:57:55;;;;;;;5.30;2.30;;;;;;;-5.71;100.00;99417.41;5066953;28;20113;-55
2024/01/10 07:00:22;;;;;;;6.13;3.22;;;;;;;-5.62;100.00;99429.44;5066036;28;20040;-57
2024/01/10 07:02:49;;;;;;;6.88;2.78;;;;;;;-5.55;100.00;99426.25;5078151;28;20538;-53
2024/01/10 07:05:15;;;;;;;5.35;2.63;;;;;;;-5.48;100.00;99435.69;5083485;28;20044;-54
2024/01/10 07:07:41;;;;;;;7.53;2.80;;;;;;;-5.43;100.00;99444.28;5063957;28;20081;-55
2024/01/10 07:10:08;;;;;;;6.55;2.58;;;;;;;-5.53;100.00;99406.88;5072421;28;20040;-54
2024/01/10 07:12:35;;;;;;;7.53;2.67;;;;;;;-5.06;100.00;99448.56;5072687;28;20472;-55
2024/01/10 07:15:04;;;;;;;7.90;2.85;;;;;;;-4.64;100.00;99456.28;5081018;28;20044;-55
2024/01/10 07:17:34;;;;;;;6.13;2.95;;;;;;;-4.25;100.00;99456.31;5050058;28;20151;-54
2024/01/10 07:20:00;;;;;;;5.03;2.50;;;;;;;-4.03;98.59;99453.34;5072381;28;20053;-54
2024/01/10 07:22:27;;;;;;;4.70;2.05;;;;;;;-4.15;97.29;99432.81;5053227;28;20040;-53
2024/01/10 07:24:54;;;;;;;8.10;2.80;;;;;;;-4.12;96.51;99468.41;5079114;28;20177;-55
2024/01/10 07:27:20;;;;;;;6.68;2.90;;;;;;;-4.33;95.18;99470.50;5075475;28;20507;-53
2024/01/10 07:29:46;;;;;;;8.07;3.40;;;;;;;-4.77;94.95;99423.91;5071864;28;20043;-54
2024/01/10 07:32:13;;;;;;;7.68;3.90;;;;;;;-4.50;94.81;99476.91;5071214;28;20040;-61
2024/01/10 07:34:39;;;;;;;7.13;3.00;;;;;;;-4.63;94.92;99477.44;5079298;28;20185;-59
2024/01/10 07:37:05;;;;;;;7.38;3.75;;;;;;;-4.66;94.85;99488.41;5078983;28;20150;-52
2024/01/10 07:39:32;;;;;;;8.35;2.78;;;;;;;-4.74;93.20;99493.28;5064153;28;20043;-54
2024/01/10 07:41:58;;;;;;;8.00;3.15;;;;;;;-4.76;92.83;99507.59;5070505;28;20039;-55
2024/01/10 07:44:26;;;;;;;5.05;2.67;;;;;;;-4.66;93.39;99505.28;5071047;28;20064;-57
2024/01/10 07:46:54;;;;;;;7.43;3.08;;;;;;;-4.60;92.76;99508.78;5063657;28;20044;-53
2024/01/10 07:49:21;;;;;;;9.93;3.10;;;;;;;-4.55;92.55;99511.47;5061576;28;20040;-51
2024/01/10 07:51:48;;;;;;;4.72;2.83;;;;;;;-4.54;92.13;99511.47;5078768;28;20139;-52
2024/01/10 07:54:14;;;;;;;6.18;2.40;;;;;;;-4.77;90.60;99477.16;5078344;28;20947;-54
2024/01/10 07:56:41;;;;;;;6.88;2.40;;;;;;;-4.80;89.61;99477.06;5068423;28;20044;-52
2024/01/10 07:59:07;;;;;;;7.88;2.45;;;;;;;-4.52;89.72;99512.38;5066620;28;20091;-52
2024/01/10 08:01:34;;;;;;;4.65;2.50;;;;;;;-4.85;89.87;99438.06;5071670;28;20041;-53
2024/01/10 08:04:00;;;;;;;14.27;4.35;;;;;;;-4.23;89.27;99510.47;5068561;28;20513;-56
2024/01/10 08:06:30;;;;;;;5.72;2.60;;;;;;;-4.36;88.43;99475.53;5076896;28;20485;-55
2024/01/10 08:08:56;;;;;;;5.05;2.50;;;;;;;-4.14;87.20;99490.38;5074384;28;20401;-55
2024/01/10 08:11:22;;;;;;;5.30;2.95;;;;;;;-4.09;86.89;99485.41;5079958;28;20032;-55
2024/01/10 08:13:51;;;;;;;5.22;2.63;;;;;;;-3.80;85.80;99518.97;5058218;28;20313;-53
2024/01/10 08:16:18;;;;;;;4.65;2.50;;;;;;;-3.45;85.66;99512.88;5054645;28;20539;-52
2024/01/10 08:18:45;;;;;;;5.18;2.63;;;;;;;-2.91;84.33;99519.78;5076096;28;20032;-52
2024/01/10 08:21:11;;;;;;;9.05;2.90;;;;;;;-2.29;84.63;99511.41;5067286;28;20428;-56
2024/01/10 08:23:38;;;;;;;7.63;2.75;;;;;;;-1.41;84.92;99516.75;5072280;28;20056;-54
2024/01/10 08:26:08;;;;;;;7.40;3.17;;;;;;;-0.98;82.03;99492.50;5048111;28;20044;-55
2024/01/10 08:28:34;;;;;;;5.10;3.17;;;;;;;-0.66;79.63;99515.75;5067827;28;20102;-50
2024/01/10 08:31:01;;;;;;;6.40;3.33;;;;;;;-1.27;79.22;99482.06;5064183;28;20048;-51
2024/01/10 08:33:27;;;;;;;9.00;3.85;;;;;;;-0.76;81.15;99484.19;5073082;28;20044;-55
2024/01/10 08:35:53;;;;;;;8.57;3.00;;;;;;;-0.31;79.02;99521.97;5071080;28;20036;-54
2024/01/10 08:38:20;;;;;;;6.65;3.13;;;;;;;-0.93;78.78;99489.16;5066676;28;20427;-55
2024/01/10 08:40:47;;;;;;;5.47;2.97;;;;;;;-1.11;79.88;99516.22;5072730;28;20044;-58
2024/01/10 08:43:13;;;;;;;7.55;3.17;;;;;;;-1.52;80.21;99488.63;5075929;28;20075;-56
2024/01/10 08:45:40;;;;;;;10.13;3.30;;;;;;;-1.78;80.22;99525.69;5059642;28;20063;-51
2024/01/10 08:48:10;;;;;;;5.10;2.83;;;;;;;-2.22;81.32;99518.31;5074265;28;20554;-54
2024/01/10 08:50:36;;;;;;;6.53;2.92;;;;;;;-2.50;83.03;99534.00;5051882;28;20058;-53
2024/01/10 08:53:05;;;;;;;6.53;3.38;;;;;;;-2.76;83.67;99531.06;5069147;28;20044;-55
2024/01/10 08:55:36;;;;;;;6.65;2.67;;;;;;;-2.95;84.99;99529.06;5069354;28;20138;-52
2024/01/10 08:58:03;;;;;;;5.97;2.67;;;;;;;-3.09;85.71;99538.97;5080151;28;20039;-54
2024/01/10 09:00:29;;;;;;;5.70;3.10;;;;;;;-3.10;86.26;99542.38;5066103;28;20042;-56
2024/01/10 09:02:56;;;;;;;6.90;3.03;;;;;;;-2.66;87.65;99545.63;5077109;28;20041;-53
2024/01/10 09:05:22;;;;;;;5.50;2.65;;;;;;;-2.50;86.61;99554.38;5062175;28;20043;-52
2024/01/10 09:07:49;;;;;;;11.15;3.00;;;;;;;-2.53;85.48;99549.25;5069677;28;20062;-54
2024/01/10 09:10:15;;;;;;;6.90;3.67;;;;;;;-1.71;89.40;99481.59;5069367;28;20047;-57
2024/01/10 09:12:45;;;;;;;9.73;3.88;;;;;;;0.75;84.63;99554.84;5030994;28;20556;-55
2024/01/10 09:15:14;;;;;;;7.60;3.47;;;;;;;2.06;77.89;99555.72;5078985;28;20050;-53
2024/01/10 09:17:43;;;;;;;7.55;3.47;;;;;;;2.30;75.95;99553.13;5073492;28;20051;-57
2024/01/10 09:20:11;;;;;;;7.28;3.60;;;;;;;2.30;75.12;99562.53;5045771;28;20421;-52
2024/01/10 09:22:38;;;;;;;7.40;3.22;;;;;;;2.32;75.00;99571.03;5051039;28;20060;-57
2024/01/10 09:25:05;;;;;;;6.10;3.03;;;;;;;1.58;76.03;99572.88;5064058;28;20036;-53
2024/01/10 09:27:33;;;;;;;5.93;3.22;;;;;;;0.81;77.48;99575.34;5070868;28;20500;-56
2024/01/10 09:30:03;;;;;;;7.22;3.42;;;;;;;0.32;79.52;99575.13;5068537;28;20366;-58
2024/01/10 09:32:32;;;;;;;6.63;2.90;;;;;;;0.49;82.49;99575.22;5069032;28;20052;-55
2024/01/10 09:34:59;;;;;;;5.18;2.45;;;;;;;0.65;79.41;99550.53;5057407;28;20180;-57
2024/01/10 09:37:25;;;;;;;6.20;3.20;;;;;;;0.20;79.46;99574.22;5071566;28;20083;-55
2024/01/10 09:39:52;;;;;;;5.68;2.80;;;;;;;-0.69;80.10;99543.81;5069488;28;20039;-54
2024/01/10 09:42:25;;;;;;;6.47;2.92;;;;;;;-1.12;81.89;99545.13;5067884;28;20091;-54
2024/01/10 09:44:52;;;;;;;8.27;3.40;;;;;;;-1.52;83.63;99500.50;5070876;28;20040;-55
2024/01/10 09:47:20;;;;;;;6.75;3.13;;;;;;;-1.12;84.74;99568.06;5071904;28;20040;-53
2024/01/10 09:49:46;;;;;;;6.22;3.47;;;;;;;-1.14;85.71;99572.28;5068788;28;20051;-52
2024/01/10 09:52:38;;;;;;;7.85;3.40;;;;;;;-1.13;86.31;99568.91;5086784;28;20043;-56
2024/01/10 09:55:05;;;;;;;7.32;3.20;;;;;;;-1.49;87.87;99518.38;5054108;28;20524;-51
2024/01/10 09:57:34;;;;;;;5.90;3.10;;;;;;;-1.22;87.85;99577.31;5072821;28;20058;-56
2024/01/10 10:00:02;;;;;;;6.43;2.95;;;;;;;-1.40;87.25;99579.66;5054914;28;20040;-53
2024/01/10 10:02:33;;;;;;;5.32;2.80;;;;;;;-1.65;86.82;99580.19;5062675;28;20146;-56
2024/01/10 10:05:08;;;;;;;7.75;3.70;;;;;;;-1.75;88.07;99579.22;5071257;28;20040;-54
2024/01/10 10:07:47;;;;;;;7.75;3.20;;;;;;;-1.90;87.96;99577.34;5071976;28;20039;-54
2024/01/10 10:10:15;;;;;;;7.03;3.20;;;;;;;-2.51;88.96;99491.56;5073385;28;20097;-56
2024/01/10 10:12:49;;;;;;;9.98;3.55;;;;;;;-2.17;89.96;99572.72;5058476;28;20164;-55
2024/01/10 10:15:17;;;;;;;7.88;3.63;;;;;;;-2.26;90.06;99575.13;5052541;28;20043;-53
2024/01/10 10:17:47;;;;;;;6.65;3.67;;;;;;;-2.42;89.53;99573.19;5085412;28;20040;-53
2024/01/10 10:20:15;;;;;;;7.93;3.55;;;;;;;-2.50;90.07;99586.59;5054213;28;20038;-51
2024/01/10 10:22:57;;;;;;;9.32;3.70;;;;;;;-2.80;91.23;99546.25;5067708;28;20040;-53
2024/01/10 10:25:23;;;;;;;7.32;3.88;;;;;;;-2.63;91.79;99575.38;5072687;28;20040;-62
2024/01/10 10:27:52;;;;;;;6.35;3.33;;;;;;;-2.94;92.84;99518.06;5074621;28;20392;-58
2024/01/10 10:30:18;;;;;;;6.10;3.30;;;;;;;-2.93;91.59;99534.19;5072985;28;20531;-56
2024/01/10 10:32:45;;;;;;;6.47;3.30;;;;;;;-2.70;92.66;99582.03;5078437;28;20351;-52
2024/01/10 10:35:11;;;;;;;8.13;3.60;;;;;;;-2.59;93.68;99578.00;5071210;28;20704;-55
2024/01/10 10:37:37;;;;;;;8.00;3.58;;;;;;;-2.80;92.78;99542.03;5083425;28;20044;-58
2024/01/10 10:40:03;;;;;;;11.00;3.55;;;;;;;-2.67;92.87;99589.72;5053542;28;20044;-54
2024/01/10 10:42:31;;;;;;;5.75;3.20;;;;;;;-2.73;93.08;99587.09;5074394;28;21873;-51
2024/01/10 10:45:03;;;;;;;5.72;3.00;;;;;;;-2.73;93.06;99586.25;5073730;28;20074;-52
2024/01/10 10:47:36;;;;;;;6.68;3.20;;;;;;;-2.72;93.06;99580.31;5077765;28;20097;-53
2024/01/10 10:50:03;;;;;;;8.65;3.70;;;;;;;-2.77;92.96;99579.34;5082409;28;20068;-54
2024/01/10 10:52:30;;;;;;;8.32;3.35;;;;;;;-3.30;93.01;99504.72;5056698;28;20601;-54
2024/01/10 10:54:58;;;;;;;10.38;3.20;;;;;;;-2.94;92.66;99576.56;5070540;28;20042;-53
2024/01/10 10:57:26;;;;;;;9.98;4.38;;;;;;;-2.81;92.58;99587.78;5067646;28;20421;-56
2024/01/10 10:59:53;;;;;;;6.57;3.25;;;;;;;-2.80;92.61;99587.81;5083976;28;20496;-54
2024/01/10 11:02:24;;;;;;;6.38;3.25;;;;;;;-2.86;92.28;99571.56;5079375;28;20055;-57
2024/01/10 11:04:54;;;;;;;9.38;4.20;;;;;;;-2.90;92.25;99573.22;5071409;28;20108;-54
2024/01/10 11:07:20;;;;;;;8.93;4.82;;;;;;;-3.00;92.74;99576.44;5054472;28;20036;-53
2024/01/10 11:09:47;;;;;;;11.18;4.43;;;;;;;-3.16;92.65;99572.75;5076425;28;20163;-57
2024/01/10 11:13:02;;;;;;;8.60;4.40;;;;;;;-3.24;92.53;99570.88;5069848;28;20044;-54
2024/01/10 11:15:34;;;;;;;10.63;4.40;;;;;;;-3.22;93.05;99576.88;5025857;28;20046;-54
2024/01/10 11:18:09;;;;;;;7.90;3.97;;;;;;;-2.74;97.26;99580.28;5079260;28;20044;-54
2024/01/10 11:21:04;;;;;;;7.38;3.97;;;;;;;-1.57;97.11;99581.16;5080680;28;20042;-57
2024/01/10 11:23:50;;;;;;;8.75;3.30;;;;;;;-1.47;90.89;99577.88;5069492;28;20060;-52
2024/01/10 11:26:16;;;;;;;7.45;3.55;;;;;;;-1.75;89.15;99580.09;5081174;28;20466;-55
2024/01/10 11:28:42;;;;;;;8.85;3.70;;;;;;;-2.16;88.66;99568.47;5050782;28;20029;-58
2024/01/10 11:31:09;;;;;;;6.78;3.63;;;;;;;-1.57;94.14;99582.00;5075212;28;20050;-53
2024/01/10 11:33:39;;;;;;;6.28;3.05;;;;;;;0.04;92.27;99586.06;5073737;28;20043;-56